Time;durP1;ratioP1;P1;durP2;ratioP2;P2;SDS_P1;SDS_P2;PMS_P1;PMS_P2;Temp;Humidity;BMP_temperature;BMP_pressure;BME280_temperature;BME280_humidity;BME280_pressure;Samples;Min_cycle;Max_cycle;Signal;HPM_P1;HPM_P2
2022/09/12 00:00:25;;;;;;;1.80;1.38;;;;;;;;;;5033716;28;20084;-70
2022/09/12 00:02:52;;;;;;;0.40;0.40;;;;;;;;;;5033569;28;20033;-71
2022/09/12 00:05:18;;;;;;;0.20;0.20;;;;;;;;;;5016406;28;20389;-71
2022/09/12 00:07:43;;;;;;;0.30;0.30;;;;;;;;;;5033042;28;20045;-71
2022/09/12 00:10:09;;;;;;;0.20;0.20;;;;;;;;;;5035006;28;20033;-71
2022/09/12 00:12:34;;;;;;;0.20;0.20;;;;;;;;;;5033567;28;20076;-71
2022/09/12 00:14:59;;;;;;;0.35;0.35;;;;;;;;;;5015744;28;20017;-71
2022/09/12 00:17:25;;;;;;;0.20;0.20;;;;;;;;;;5037707;28;20025;-71
2022/09/12 00:19:51;;;;;;;0.30;0.30;;;;;;;;;;5041246;28;20029;-71
2022/09/12 00:22:16;;;;;;;0.20;0.20;;;;;;;;;;5042344;28;20013;-71
2022/09/12 00:24:41;;;;;;;0.20;0.20;;;;;;;;;;5033806;28;20029;-71
2022/09/12 00:27:07;;;;;;;0.20;0.20;;;;;;;;;;5033197;28;20041;-71
2022/09/12 00:29:32;;;;;;;0.17;0.17;;;;;;;;;;5015649;28;20033;-71
2022/09/12 00:31:58;;;;;;;0.63;0.63;;;;;;;;;;5015079;28;20543;-70
2022/09/12 00:34:23;;;;;;;0.17;0.17;;;;;;;;;;5033485;28;20045;-71
2022/09/12 00:36:49;;;;;;;6.57;6.13;;;;;;;;;;5039867;28;20057;-71
2022/09/12 00:39:15;;;;;;;14.65;9.23;;;;;;;;;;5052986;28;20099;-72
2022/09/12 00:41:41;;;;;;;1.95;1.85;;;;;;;;;;5038315;28;20076;-72
2022/09/12 00:44:22;;;;;;;0.47;0.47;;;;;;;;;;5015547;28;20477;-72
2022/09/12 00:46:51;;;;;;;0.25;0.25;;;;;;;;;;5033035;28;20496;-72
2022/09/12 00:49:23;;;;;;;0.20;0.20;;;;;;;;;;5032935;28;20080;-72
2022/09/12 00:51:51;;;;;;;0.10;0.10;;;;;;;;;;5032971;28;20032;-72
2022/09/12 00:54:20;;;;;;;0.20;0.20;;;;;;;;;;5032641;28;20083;-72
2022/09/12 00:56:46;;;;;;;0.20;0.20;;;;;;;;;;5015105;28;20061;-71
2022/09/12 00:59:23;;;;;;;0.22;0.22;;;;;;;;;;5014916;28;20013;-71
2022/09/12 01:01:49;;;;;;;0.10;0.10;;;;;;;;;;5031654;28;20477;-70
2022/09/12 01:04:16;;;;;;;6.07;5.63;;;;;;;;;;5032865;28;20026;-70
2022/09/12 01:06:42;;;;;;;3.30;3.08;;;;;;;;;;5039824;28;20160;-71
2022/09/12 01:09:10;;;;;;;0.73;0.73;;;;;;;;;;5032752;28;20487;-70
2022/09/12 01:11:37;;;;;;;1.40;1.30;;;;;;;;;;4998787;28;20108;-70
2022/09/12 01:14:04;;;;;;;0.63;0.63;;;;;;;;;;5015548;28;20036;-70
2022/09/12 01:16:29;;;;;;;0.20;0.20;;;;;;;;;;5032702;28;20038;-70
2022/09/12 01:19:14;;;;;;;0.20;0.20;;;;;;;;;;5014985;28;20029;-70
2022/09/12 01:21:58;;;;;;;0.20;0.20;;;;;;;;;;5032880;28;20035;-70
2022/09/12 01:24:26;;;;;;;0.43;0.43;;;;;;;;;;5032774;28;20025;-71
2022/09/12 01:26:55;;;;;;;4.50;4.20;;;;;;;;;;5032720;28;20100;-70
2022/09/12 01:29:20;;;;;;;1.05;1.05;;;;;;;;;;5014909;28;20388;-70
2022/09/12 01:31:52;;;;;;;0.40;0.40;;;;;;;;;;5032472;28;20032;-71
2022/09/12 01:34:34;;;;;;;0.30;0.30;;;;;;;;;;5032851;28;20469;-71
2022/09/12 01:37:04;;;;;;;0.65;0.65;;;;;;;;;;5032599;28;20067;-71
2022/09/12 01:39:38;;;;;;;0.30;0.30;;;;;;;;;;5032519;28;20120;-71
2022/09/12 01:42:09;;;;;;;2.83;1.98;;;;;;;;;;5015115;28;20384;-71
2022/09/12 01:44:53;;;;;;;0.20;0.20;;;;;;;;;;5035814;28;20697;-71
2022/09/12 01:47:29;;;;;;;0.63;0.63;;;;;;;;;;5036106;28;20432;-71
2022/09/12 01:50:16;;;;;;;0.40;0.40;;;;;;;;;;5036115;28;20026;-71
2022/09/12 01:52:42;;;;;;;5.75;2.08;;;;;;;;;;5001743;28;20025;-71
2022/09/12 01:55:07;;;;;;;0.60;0.60;;;;;;;;;;5018788;28;20164;-71
2022/09/12 01:57:44;;;;;;;0.30;0.30;;;;;;;;;;5018242;28;20163;-71
2022/09/12 02:00:10;;;;;;;0.20;0.20;;;;;;;;;;5035890;28;20032;-72
2022/09/12 02:02:49;;;;;;;0.10;0.10;;;;;;;;;;5035904;28;20439;-72
2022/09/12 02:05:28;;;;;;;1.10;1.10;;;;;;;;;;5035644;28;20026;-71
2022/09/12 02:08:00;;;;;;;0.20;0.20;;;;;;;;;;5017819;28;20053;-70
2022/09/12 02:10:29;;;;;;;0.85;0.85;;;;;;;;;;5035731;28;20025;-70
2022/09/12 02:13:00;;;;;;;0.20;0.20;;;;;;;;;;5035566;28;20037;-71
2022/09/12 02:15:31;;;;;;;0.20;0.20;;;;;;;;;;5035576;28;20028;-72
2022/09/12 02:17:59;;;;;;;12.55;3.83;;;;;;;;;;5018493;28;20076;-70
2022/09/12 02:20:27;;;;;;;0.30;0.30;;;;;;;;;;5035657;28;20376;-71
2022/09/12 02:22:53;;;;;;;0.30;0.30;;;;;;;;;;5035487;28;20075;-70
2022/09/12 02:25:20;;;;;;;0.25;0.25;;;;;;;;;;5001120;28;20084;-71
2022/09/12 02:27:52;;;;;;;0.20;0.20;;;;;;;;;;5017490;28;20582;-71
2022/09/12 02:30:18;;;;;;;0.20;0.20;;;;;;;;;;5035208;28;20079;-71
2022/09/12 02:32:53;;;;;;;0.20;0.20;;;;;;;;;;5035402;28;20026;-71
2022/09/12 02:35:25;;;;;;;0.25;0.25;;;;;;;;;;5035300;28;20030;-71
2022/09/12 02:38:09;;;;;;;0.20;0.20;;;;;;;;;;5035139;28;20120;-71
2022/09/12 02:40:34;;;;;;;10.15;8.52;;;;;;;;;;5000954;28;20481;-71
2022/09/12 02:43:01;;;;;;;0.20;0.20;;;;;;;;;;5017525;28;20087;-70
2022/09/12 02:45:28;;;;;;;1.70;1.65;;;;;;;;;;5017356;28;20033;-71
2022/09/12 02:48:11;;;;;;;0.20;0.20;;;;;;;;;;5034885;28;20404;-70
2022/09/12 02:50:37;;;;;;;0.20;0.20;;;;;;;;;;5033402;28;20029;-71
2022/09/12 02:53:04;;;;;;;0.20;0.20;;;;;;;;;;5034649;28;20030;-71
2022/09/12 02:55:31;;;;;;;0.20;0.20;;;;;;;;;;5033961;28;20029;-71
2022/09/12 02:57:56;;;;;;;0.55;0.55;;;;;;;;;;5016569;28;20037;-70
2022/09/12 03:00:22;;;;;;;0.30;0.30;;;;;;;;;;5034780;28;20021;-71
2022/09/12 03:02:57;;;;;;;0.25;0.25;;;;;;;;;;5037979;28;20091;-71
2022/09/12 03:05:46;;;;;;;0.10;0.10;;;;;;;;;;5032798;28;20387;-72
2022/09/12 03:08:25;;;;;;;0.30;0.30;;;;;;;;;;5039477;28;20063;-72
2022/09/12 03:10:50;;;;;;;;;;;;;;;;;;5033293;28;20029;-71
2022/09/12 03:13:25;;;;;;;0.10;0.10;;;;;;;;;;5050894;28;19916;-71
2022/09/12 03:15:58;;;;;;;0.20;0.20;;;;;;;;;;5050261;28;20516;-71
2022/09/12 03:18:23;;;;;;;0.20;0.20;;;;;;;;;;5049927;28;20047;-71
2022/09/12 03:21:04;;;;;;;0.20;0.20;;;;;;;;;;5043323;28;20018;-71
2022/09/12 03:23:36;;;;;;;0.20;0.20;;;;;;;;;;5012570;28;20079;-71
2022/09/12 03:26:20;;;;;;;0.20;0.20;;;;;;;;;;5028343;28;20038;-71
2022/09/12 03:28:48;;;;;;;0.20;0.20;;;;;;;;;;5050316;28;20127;-71
2022/09/12 03:31:14;;;;;;;0.20;0.20;;;;;;;;;;5050561;28;20032;-71
2022/09/12 03:33:40;;;;;;;0.20;0.20;;;;;;;;;;5024849;28;20112;-71
2022/09/12 03:36:08;;;;;;;0.20;0.20;;;;;;;;;;5030288;28;20116;-72
2022/09/12 03:38:33;;;;;;;0.20;0.20;;;;;;;;;;5030213;28;20476;-71
2022/09/12 03:40:59;;;;;;;0.20;0.20;;;;;;;;;;5030020;28;20044;-72
2022/09/12 03:43:25;;;;;;;0.20;0.20;;;;;;;;;;5012776;28;20044;-71
2022/09/12 03:45:53;;;;;;;0.20;0.20;;;;;;;;;;5029929;28;20093;-71
2022/09/12 03:48:19;;;;;;;0.40;0.40;;;;;;;;;;5030640;28;20098;-71
2022/09/12 03:50:44;;;;;;;0.20;0.20;;;;;;;;;;5030112;28;20053;-71
2022/09/12 03:53:10;;;;;;;0.20;0.20;;;;;;;;;;5030490;28;20029;-71
2022/09/12 03:55:37;;;;;;;0.20;0.20;;;;;;;;;;5029304;28;20021;-71
2022/09/12 03:58:03;;;;;;;0.20;0.20;;;;;;;;;;5029411;28;20042;-71
2022/09/12 04:00:28;;;;;;;0.20;0.20;;;;;;;;;;5032524;28;20401;-71
2022/09/12 04:02:55;;;;;;;0.20;0.20;;;;;;;;;;5037090;28;20029;-71
2022/09/12 04:05:21;;;;;;;0.10;0.10;;;;;;;;;;5011574;28;20382;-71
2022/09/12 04:07:46;;;;;;;0.20;0.20;;;;;;;;;;5011520;28;20137;-72
2022/09/12 04:10:12;;;;;;;0.20;0.20;;;;;;;;;;4995685;28;20029;-72
2022/09/12 04:12:38;;;;;;;9.77;5.35;;;;;;;;;;5011706;28;20029;-72
2022/09/12 04:15:04;;;;;;;0.28;0.28;;;;;;;;;;5029676;28;20111;-72
2022/09/12 04:17:30;;;;;;;0.93;0.85;;;;;;;;;;5012355;28;20110;-72
2022/09/12 04:19:55;;;;;;;3.08;2.83;;;;;;;;;;5029584;28;20053;-73
2022/09/12 04:22:21;;;;;;;0.20;0.20;;;;;;;;;;5029448;28;20037;-73
2022/09/12 04:24:46;;;;;;;0.15;0.15;;;;;;;;;;5030044;28;20025;-72
2022/09/12 04:27:12;;;;;;;0.28;0.28;;;;;;;;;;5029029;28;20032;-73
2022/09/12 04:29:37;;;;;;;0.20;0.20;;;;;;;;;;5028917;28;20052;-71
2022/09/12 04:32:03;;;;;;;0.20;0.20;;;;;;;;;;5029172;28;20113;-71
2022/09/12 04:34:30;;;;;;;0.40;0.40;;;;;;;;;;5029315;28;20108;-71
2022/09/12 04:36:56;;;;;;;0.20;0.20;;;;;;;;;;5029518;28;20025;-70
2022/09/12 04:39:22;;;;;;;0.30;0.30;;;;;;;;;;5028884;28;20091;-70
2022/09/12 04:41:47;;;;;;;0.20;0.20;;;;;;;;;;5027738;28;20026;-70
2022/09/12 04:44:13;;;;;;;0.20;0.20;;;;;;;;;;5029100;28;20030;-71
2022/09/12 04:46:43;;;;;;;0.20;0.20;;;;;;;;;;5029792;28;20079;-71
2022/09/12 04:49:09;;;;;;;0.50;0.50;;;;;;;;;;5028963;28;20045;-72
2022/09/12 04:51:35;;;;;;;0.32;0.32;;;;;;;;;;5012245;28;20013;-73
2022/09/12 04:54:05;;;;;;;0.20;0.20;;;;;;;;;;5032859;28;20037;-72
2022/09/12 04:56:33;;;;;;;0.20;0.20;;;;;;;;;;5028859;28;20071;-72
2022/09/12 04:58:59;;;;;;;0.30;0.30;;;;;;;;;;5029205;28;20041;-71
2022/09/12 05:01:25;;;;;;;0.20;0.20;;;;;;;;;;5022199;28;20025;-71
2022/09/12 05:03:50;;;;;;;0.40;0.40;;;;;;;;;;5030150;28;20029;-70
2022/09/12 05:06:20;;;;;;;0.20;0.20;;;;;;;;;;5052756;28;20029;-71
2022/09/12 05:08:46;;;;;;;0.13;0.13;;;;;;;;;;5046661;28;20480;-71
2022/09/12 05:11:13;;;;;;;5.60;5.28;;;;;;;;;;5046866;28;20068;-70
2022/09/12 05:13:38;;;;;;;0.20;0.20;;;;;;;;;;5040694;28;20057;-72
2022/09/12 05:16:04;;;;;;;0.28;0.28;;;;;;;;;;5010801;28;20103;-73
2022/09/12 05:18:31;;;;;;;0.20;0.20;;;;;;;;;;5032038;28;20028;-73
2022/09/12 05:20:58;;;;;;;1.60;1.50;;;;;;;;;;5034525;28;20040;-72
2022/09/12 05:23:23;;;;;;;0.30;0.30;;;;;;;;;;5043413;28;20039;-70
2022/09/12 05:25:50;;;;;;;0.28;0.28;;;;;;;;;;5032107;28;20647;-72
2022/09/12 05:28:15;;;;;;;0.20;0.20;;;;;;;;;;5031173;28;20037;-71
2022/09/12 05:30:40;;;;;;;0.30;0.30;;;;;;;;;;5015210;28;20492;-71
2022/09/12 05:33:06;;;;;;;1.02;1.02;;;;;;;;;;5031731;28;20079;-71
2022/09/12 05:35:32;;;;;;;0.20;0.20;;;;;;;;;;5024240;28;20084;-71
2022/09/12 05:37:57;;;;;;;11.10;7.18;;;;;;;;;;5031447;28;20042;-71
2022/09/12 05:40:23;;;;;;;0.30;0.30;;;;;;;;;;5013983;28;20076;-71
2022/09/12 05:42:48;;;;;;;0.20;0.20;;;;;;;;;;5014685;28;20139;-70
2022/09/12 05:45:14;;;;;;;0.40;0.40;;;;;;;;;;5032546;28;20112;-71
2022/09/12 05:47:40;;;;;;;0.25;0.25;;;;;;;;;;5032611;28;20055;-71
2022/09/12 05:50:09;;;;;;;0.20;0.20;;;;;;;;;;5032282;28;20025;-72
2022/09/12 05:52:35;;;;;;;0.45;0.45;;;;;;;;;;5032767;28;20548;-71
2022/09/12 05:55:01;;;;;;;0.20;0.20;;;;;;;;;;5042673;28;20036;-72
2022/09/12 05:57:26;;;;;;;0.25;0.25;;;;;;;;;;5051716;28;20077;-71
2022/09/12 05:59:52;;;;;;;0.20;0.20;;;;;;;;;;5051942;28;20040;-71
2022/09/12 06:02:18;;;;;;;0.50;0.50;;;;;;;;;;5034637;28;20078;-70
2022/09/12 06:04:44;;;;;;;0.20;0.20;;;;;;;;;;5052045;28;20017;-70
2022/09/12 06:07:10;;;;;;;0.20;0.20;;;;;;;;;;5045476;28;20057;-70
2022/09/12 06:09:36;;;;;;;0.65;0.65;;;;;;;;;;5033899;28;20042;-70
2022/09/12 06:12:01;;;;;;;11.07;7.47;;;;;;;;;;5031631;28;20484;-71
2022/09/12 06:14:27;;;;;;;0.30;0.30;;;;;;;;;;4998218;28;20057;-70
2022/09/12 06:16:53;;;;;;;21.55;15.32;;;;;;;;;;5031917;28;20040;-71
2022/09/12 06:19:20;;;;;;;0.20;0.20;;;;;;;;;;5032751;28;20214;-72
2022/09/12 06:21:52;;;;;;;0.25;0.25;;;;;;;;;;5031509;28;20026;-72
2022/09/12 06:24:18;;;;;;;0.20;0.20;;;;;;;;;;5031668;28;20361;-71
2022/09/12 06:26:46;;;;;;;2.72;2.60;;;;;;;;;;5031850;28;20057;-71
2022/09/12 06:29:12;;;;;;;0.20;0.20;;;;;;;;;;5029209;28;20047;-72
2022/09/12 06:31:40;;;;;;;0.30;0.30;;;;;;;;;;5025992;28;20055;-71
2022/09/12 06:34:08;;;;;;;0.43;0.43;;;;;;;;;;5032699;28;20022;-71
2022/09/12 06:36:41;;;;;;;1.88;1.75;;;;;;;;;;5013964;28;20026;-71
2022/09/12 06:39:09;;;;;;;0.20;0.20;;;;;;;;;;5013471;28;20037;-71
2022/09/12 06:41:39;;;;;;;4.47;1.98;;;;;;;;;;5013536;28;20026;-71
2022/09/12 06:44:05;;;;;;;0.35;0.35;;;;;;;;;;5038370;28;20053;-72
2022/09/12 06:46:31;;;;;;;0.20;0.20;;;;;;;;;;5051180;28;20032;-72
2022/09/12 06:48:59;;;;;;;0.30;0.30;;;;;;;;;;5050730;28;20040;-71
2022/09/12 06:51:26;;;;;;;0.20;0.20;;;;;;;;;;5050361;28;20017;-71
2022/09/12 06:53:56;;;;;;;0.30;0.30;;;;;;;;;;5029762;28;20025;-71
2022/09/12 06:56:23;;;;;;;0.20;0.20;;;;;;;;;;5050338;28;20021;-71
2022/09/12 06:58:49;;;;;;;0.47;0.47;;;;;;;;;;5050664;28;20056;-71
2022/09/12 07:01:16;;;;;;;0.20;0.20;;;;;;;;;;5032446;28;20423;-71
2022/09/12 07:03:43;;;;;;;0.28;0.28;;;;;;;;;;5050100;28;20535;-71
2022/09/12 07:06:13;;;;;;;0.20;0.20;;;;;;;;;;5032569;28;20098;-72
2022/09/12 07:08:39;;;;;;;0.20;0.20;;;;;;;;;;5050462;28;20044;-73
2022/09/12 07:11:08;;;;;;;0.30;0.30;;;;;;;;;;5032826;28;20037;-71
2022/09/12 07:13:34;;;;;;;0.20;0.20;;;;;;;;;;5050645;28;20550;-72
2022/09/12 07:16:01;;;;;;;1.95;1.85;;;;;;;;;;5050349;28;20029;-73
2022/09/12 07:18:28;;;;;;;0.20;0.20;;;;;;;;;;5011465;28;20029;-72
2022/09/12 07:20:54;;;;;;;0.20;0.20;;;;;;;;;;5044091;28;20037;-72
2022/09/12 07:23:20;;;;;;;0.28;0.28;;;;;;;;;;5029498;28;20036;-73
2022/09/12 07:25:56;;;;;;;0.30;0.30;;;;;;;;;;5032337;28;20029;-71
2022/09/12 07:28:25;;;;;;;0.30;0.30;;;;;;;;;;5007019;28;20075;-72
2022/09/12 07:30:52;;;;;;;0.30;0.30;;;;;;;;;;5035949;28;20033;-70
2022/09/12 07:33:26;;;;;;;0.22;0.22;;;;;;;;;;5047075;28;20028;-71
2022/09/12 07:35:53;;;;;;;0.20;0.20;;;;;;;;;;5030080;28;20057;-72
2022/09/12 07:38:21;;;;;;;0.22;0.22;;;;;;;;;;5032047;28;20033;-72
2022/09/12 07:40:46;;;;;;;0.20;0.20;;;;;;;;;;5015710;28;20026;-73
2022/09/12 07:43:12;;;;;;;0.38;0.38;;;;;;;;;;5038635;28;20380;-72
2022/09/12 07:45:40;;;;;;;0.30;0.30;;;;;;;;;;5021757;28;20115;-72
2022/09/12 07:48:06;;;;;;;0.33;0.33;;;;;;;;;;5025218;28;20064;-72
2022/09/12 07:50:32;;;;;;;0.30;0.30;;;;;;;;;;5041893;28;20114;-72
2022/09/12 07:52:57;;;;;;;0.20;0.20;;;;;;;;;;5014999;28;20454;-72
2022/09/12 07:55:23;;;;;;;0.40;0.40;;;;;;;;;;5013654;28;20139;-73
2022/09/12 07:57:52;;;;;;;0.30;0.30;;;;;;;;;;5044810;28;20033;-71
2022/09/12 08:00:18;;;;;;;0.30;0.30;;;;;;;;;;5036601;28;20040;-72
2022/09/12 08:02:43;;;;;;;0.30;0.30;;;;;;;;;;5029385;28;20025;-71
2022/09/12 08:05:09;;;;;;;0.20;0.20;;;;;;;;;;5015675;28;20056;-71
2022/09/12 08:07:35;;;;;;;0.25;0.25;;;;;;;;;;5037735;28;20481;-73
2022/09/12 08:10:01;;;;;;;0.40;0.35;;;;;;;;;;5028705;28;20117;-72
2022/09/12 08:12:28;;;;;;;0.35;0.35;;;;;;;;;;5028751;28;20570;-73
2022/09/12 08:14:53;;;;;;;0.32;0.32;;;;;;;;;;5016116;28;20026;-73
2022/09/12 08:17:19;;;;;;;1.95;0.68;;;;;;;;;;5040451;28;20078;-72
2022/09/12 08:19:44;;;;;;;0.22;0.22;;;;;;;;;;5038684;28;20037;-72
2022/09/12 08:22:10;;;;;;;0.28;0.28;;;;;;;;;;5015788;28;20026;-72
2022/09/12 08:24:38;;;;;;;0.20;0.20;;;;;;;;;;5034822;28;20032;-71
2022/09/12 08:27:04;;;;;;;0.40;0.40;;;;;;;;;;5023350;28;20462;-71
2022/09/12 08:29:30;;;;;;;0.20;0.20;;;;;;;;;;5010975;28;20044;-72
2022/09/12 08:31:56;;;;;;;0.30;0.30;;;;;;;;;;5030776;28;20537;-72
2022/09/12 08:34:23;;;;;;;0.20;0.20;;;;;;;;;;5029983;28;20041;-72
2022/09/12 08:36:50;;;;;;;0.55;0.55;;;;;;;;;;5043563;28;20033;-73
2022/09/12 08:39:16;;;;;;;0.55;0.30;;;;;;;;;;5023681;28;20040;-71
2022/09/12 08:41:54;;;;;;;0.25;0.25;;;;;;;;;;5030223;28;20013;-73
2022/09/12 08:44:23;;;;;;;0.25;0.25;;;;;;;;;;5031682;28;20052;-72
2022/09/12 08:47:07;;;;;;;0.22;0.22;;;;;;;;;;5023616;28;20025;-71
2022/09/12 08:49:33;;;;;;;0.20;0.20;;;;;;;;;;5042796;28;20036;-72
2022/09/12 08:52:04;;;;;;;0.28;0.28;;;;;;;;;;5029667;28;20025;-72
2022/09/12 08:54:34;;;;;;;0.30;0.30;;;;;;;;;;5030631;28;20033;-72
2022/09/12 08:57:04;;;;;;;0.85;0.85;;;;;;;;;;5048659;28;20082;-71
2022/09/12 08:59:38;;;;;;;0.30;0.30;;;;;;;;;;5050139;28;20097;-72
2022/09/12 09:02:16;;;;;;;0.25;0.25;;;;;;;;;;5048015;28;20043;-72
2022/09/12 09:04:55;;;;;;;0.20;0.20;;;;;;;;;;5039066;28;20140;-73
2022/09/12 09:07:21;;;;;;;0.30;0.30;;;;;;;;;;5013083;28;20042;-73
2022/09/12 09:10:00;;;;;;;2.17;0.50;;;;;;;;;;5025630;28;20382;-71
2022/09/12 09:12:25;;;;;;;0.30;0.30;;;;;;;;;;5011648;28;20037;-72
2022/09/12 09:15:07;;;;;;;0.30;0.30;;;;;;;;;;5010287;28;20133;-72
2022/09/12 09:17:37;;;;;;;0.30;0.30;;;;;;;;;;5021091;28;20037;-71
2022/09/12 09:20:10;;;;;;;0.30;0.30;;;;;;;;;;5027351;28;20060;-72
2022/09/12 09:22:42;;;;;;;1.98;1.10;;;;;;;;;;5029201;28;20061;-72
2022/09/12 09:25:17;;;;;;;0.30;0.30;;;;;;;;;;5029816;28;20044;-73
2022/09/12 09:27:56;;;;;;;0.30;0.30;;;;;;;;;;5030740;28;20054;-72
2022/09/12 09:30:22;;;;;;;3.72;0.52;;;;;;;;;;5025696;28;20108;-75
2022/09/12 09:32:51;;;;;;;0.30;0.30;;;;;;;;;;5019946;28;20026;-73
2022/09/12 09:35:21;;;;;;;10.32;1.38;;;;;;;;;;4995986;28;20389;-74
2022/09/12 09:37:56;;;;;;;0.32;0.32;;;;;;;;;;5017894;28;20485;-75
2022/09/12 09:40:22;;;;;;;0.40;0.40;;;;;;;;;;5009936;28;20038;-73
2022/09/12 09:43:02;;;;;;;0.50;0.50;;;;;;;;;;5009773;28;20092;-74
2022/09/12 09:45:28;;;;;;;0.38;0.38;;;;;;;;;;5010765;28;20034;-75
2022/09/12 09:48:10;;;;;;;0.80;0.80;;;;;;;;;;5009442;28;20069;-74
2022/09/12 09:50:37;;;;;;;0.22;0.22;;;;;;;;;;5011330;28;20436;-74
2022/09/12 09:53:03;;;;;;;0.40;0.40;;;;;;;;;;5014883;28;20165;-72
2022/09/12 09:55:37;;;;;;;0.30;0.30;;;;;;;;;;4997243;28;20030;-75
2022/09/12 09:58:04;;;;;;;0.35;0.35;;;;;;;;;;5004493;28;20038;-74
2022/09/12 10:00:30;;;;;;;0.40;0.40;;;;;;;;;;5003327;28;20346;-73
2022/09/12 10:03:18;;;;;;;0.40;0.40;;;;;;;;;;5009808;28;20041;-75
2022/09/12 10:05:48;;;;;;;2.17;0.50;;;;;;;;;;4993636;28;20032;-73
2022/09/12 10:08:30;;;;;;;0.40;0.40;;;;;;;;;;5009197;28;20411;-77
2022/09/12 10:11:04;;;;;;;0.40;0.40;;;;;;;;;;5008261;28;20128;-75
2022/09/12 10:13:51;;;;;;;0.32;0.32;;;;;;;;;;5009228;28;20100;-75
2022/09/12 10:16:19;;;;;;;0.20;0.20;;;;;;;;;;5012204;28;20052;-74
2022/09/12 10:18:45;;;;;;;0.90;0.60;;;;;;;;;;5027841;28;20041;-75
2022/09/12 10:21:19;;;;;;;0.40;0.40;;;;;;;;;;5028540;28;20385;-75
2022/09/12 10:23:46;;;;;;;0.30;0.30;;;;;;;;;;5011634;28;20637;-75
2022/09/12 10:26:13;;;;;;;1.10;0.50;;;;;;;;;;5028868;28;20079;-75
2022/09/12 10:28:42;;;;;;;0.30;0.30;;;;;;;;;;5028385;28;20041;-75
2022/09/12 10:31:14;;;;;;;0.20;0.20;;;;;;;;;;5026080;28;20045;-74
2022/09/12 10:33:51;;;;;;;0.30;0.30;;;;;;;;;;5013766;28;20065;-74
2022/09/12 10:36:17;;;;;;;0.50;0.50;;;;;;;;;;5024537;28;20036;-72
2022/09/12 10:38:57;;;;;;;0.40;0.40;;;;;;;;;;5016214;28;20037;-75
2022/09/12 10:41:22;;;;;;;0.40;0.40;;;;;;;;;;5027714;28;20474;-75
2022/09/12 10:43:48;;;;;;;0.32;0.32;;;;;;;;;;5025620;28;20037;-74
2022/09/12 10:46:18;;;;;;;0.30;0.30;;;;;;;;;;5027292;28;20037;-75
2022/09/12 10:48:47;;;;;;;0.55;0.50;;;;;;;;;;5027970;28;20041;-75
2022/09/12 10:51:24;;;;;;;0.45;0.43;;;;;;;;;;5029651;28;20590;-75
2022/09/12 10:53:51;;;;;;;0.38;0.38;;;;;;;;;;5030440;28;20051;-75
2022/09/12 10:56:19;;;;;;;0.40;0.40;;;;;;;;;;5030812;28;20021;-75
2022/09/12 10:59:04;;;;;;;0.40;0.40;;;;;;;;;;5030016;28;20560;-75
2022/09/12 11:01:32;;;;;;;0.43;0.43;;;;;;;;;;5031076;28;20045;-76
2022/09/12 11:04:07;;;;;;;0.30;0.30;;;;;;;;;;5027555;28;20017;-75
2022/09/12 11:06:48;;;;;;;0.43;0.43;;;;;;;;;;5026640;28;20030;-77
2022/09/12 11:09:20;;;;;;;0.30;0.30;;;;;;;;;;5012960;28;20136;-76
2022/09/12 11:11:46;;;;;;;0.30;0.30;;;;;;;;;;5046670;28;20052;-75
2022/09/12 11:14:21;;;;;;;0.50;0.50;;;;;;;;;;5046975;28;20028;-74
2022/09/12 11:16:47;;;;;;;0.45;0.45;;;;;;;;;;5046749;28;20036;-74
2022/09/12 11:19:18;;;;;;;0.40;0.40;;;;;;;;;;5050095;28;20108;-76
2022/09/12 11:21:47;;;;;;;0.55;0.40;;;;;;;;;;5032791;28;20041;-76
2022/09/12 11:24:27;;;;;;;0.60;0.40;;;;;;;;;;5049958;28;20025;-76
2022/09/12 11:27:05;;;;;;;0.40;0.40;;;;;;;;;;5050446;28;20033;-75
2022/09/12 11:29:42;;;;;;;4.03;0.93;;;;;;;;;;5050160;28;20040;-76
2022/09/12 11:32:26;;;;;;;0.40;0.40;;;;;;;;;;5032099;28;20032;-74
2022/09/12 11:35:09;;;;;;;0.40;0.40;;;;;;;;;;5050775;28;20036;-77
2022/09/12 11:37:42;;;;;;;0.47;0.30;;;;;;;;;;5032176;28;20029;-75
2022/09/12 11:40:30;;;;;;;0.45;0.45;;;;;;;;;;5031858;28;20074;-76
2022/09/12 11:43:00;;;;;;;0.57;0.57;;;;;;;;;;5032544;28;20094;-76
2022/09/12 11:45:34;;;;;;;0.43;0.43;;;;;;;;;;5050699;28;20035;-76
2022/09/12 11:48:04;;;;;;;0.50;0.50;;;;;;;;;;5050157;28;20124;-75
2022/09/12 11:50:31;;;;;;;0.35;0.35;;;;;;;;;;5030126;28;20132;-75
2022/09/12 11:52:59;;;;;;;0.50;0.50;;;;;;;;;;5031332;28;20033;-75
2022/09/12 11:55:27;;;;;;;0.60;0.60;;;;;;;;;;5022397;28;20040;-77
2022/09/12 11:58:00;;;;;;;0.30;0.30;;;;;;;;;;5026386;28;20022;-75
2022/09/12 12:00:38;;;;;;;0.30;0.30;;;;;;;;;;5012912;28;20037;-75
2022/09/12 12:03:21;;;;;;;0.75;0.40;;;;;;;;;;5047167;28;20025;-76
2022/09/12 12:05:50;;;;;;;0.30;0.30;;;;;;;;;;5049157;28;20024;-76
2022/09/12 12:08:18;;;;;;;0.65;0.55;;;;;;;;;;5028176;28;20045;-77
2022/09/12 12:11:03;;;;;;;0.32;0.32;;;;;;;;;;5028698;28;20083;-75
2022/09/12 12:13:38;;;;;;;0.50;0.50;;;;;;;;;;5024332;28;20482;-75
2022/09/12 12:16:18;;;;;;;0.35;0.35;;;;;;;;;;5026858;28;20032;-76
2022/09/12 12:18:44;;;;;;;0.30;0.30;;;;;;;;;;5024832;28;20483;-75
2022/09/12 12:21:28;;;;;;;3.90;0.52;;;;;;;;;;5021933;28;20037;-75
2022/09/12 12:24:06;;;;;;;0.30;0.30;;;;;;;;;;5024418;28;20116;-75
2022/09/12 12:26:38;;;;;;;1.38;0.50;;;;;;;;;;5010402;28;20022;-75
2022/09/12 12:29:14;;;;;;;0.50;0.50;;;;;;;;;;5010200;28;20104;-74
2022/09/12 12:31:57;;;;;;;0.90;0.40;;;;;;;;;;5008135;28;20060;-77
2022/09/12 12:34:31;;;;;;;0.30;0.30;;;;;;;;;;5015904;28;20030;-76
2022/09/12 12:36:58;;;;;;;0.63;0.45;;;;;;;;;;5024322;28;20033;-73
2022/09/12 12:39:32;;;;;;;5.60;3.70;;;;;;;;;;5029087;28;20025;-76
2022/09/12 12:42:01;;;;;;;0.50;0.50;;;;;;;;;;5029364;28;20067;-75
2022/09/12 12:44:46;;;;;;;2.55;1.45;;;;;;;;;;5027590;28;20084;-75
2022/09/12 12:47:17;;;;;;;0.30;0.30;;;;;;;;;;5012306;28;20037;-75
2022/09/12 12:49:48;;;;;;;0.43;0.40;;;;;;;;;;5015751;28;20069;-75
2022/09/12 12:52:17;;;;;;;0.40;0.40;;;;;;;;;;5009638;28;20033;-76
2022/09/12 12:54:42;;;;;;;0.30;0.30;;;;;;;;;;5022460;28;20018;-76
2022/09/12 12:57:14;;;;;;;0.47;0.47;;;;;;;;;;5021212;28;20029;-75
2022/09/12 12:59:47;;;;;;;0.30;0.30;;;;;;;;;;5028724;28;20116;-76
2022/09/12 13:02:18;;;;;;;1.80;1.20;;;;;;;;;;5029310;28;20486;-76
2022/09/12 13:04:44;;;;;;;0.85;0.70;;;;;;;;;;5018685;28;20032;-76
2022/09/12 13:07:19;;;;;;;0.50;0.50;;;;;;;;;;5023439;28;20057;-75
2022/09/12 13:09:46;;;;;;;8.98;0.52;;;;;;;;;;5027053;28;20071;-77
2022/09/12 13:12:22;;;;;;;0.40;0.40;;;;;;;;;;5029301;28;20082;-75
2022/09/12 13:14:50;;;;;;;0.40;0.40;;;;;;;;;;5025634;28;20049;-75
2022/09/12 13:17:22;;;;;;;0.40;0.40;;;;;;;;;;5046028;28;20019;-75
2022/09/12 13:19:48;;;;;;;0.40;0.40;;;;;;;;;;5036434;28;20110;-75
2022/09/12 13:22:14;;;;;;;0.30;0.30;;;;;;;;;;5031168;28;20115;-75
2022/09/12 13:24:43;;;;;;;2.83;1.95;;;;;;;;;;5048636;28;20117;-75
2022/09/12 13:27:17;;;;;;;0.40;0.40;;;;;;;;;;5044564;28;20032;-75
2022/09/12 13:29:43;;;;;;;0.32;0.32;;;;;;;;;;5028632;28;20073;-75
2022/09/12 13:32:10;;;;;;;1.00;0.40;;;;;;;;;;5028848;28;20034;-75
2022/09/12 13:35:15;;;;;;;0.35;0.35;;;;;;;;;;5029425;28;20032;-75
2022/09/12 13:37:44;;;;;;;0.40;0.40;;;;;;;;;;4948785;28;20079;-75
2022/09/12 13:40:22;;;;;;;1.52;0.50;;;;;;;;;;4952216;29;20035;-75
2022/09/12 13:42:50;;;;;;;0.38;0.38;;;;;;;;;;4992117;28;20041;-76
2022/09/12 13:45:21;;;;;;;0.50;0.50;;;;;;;;;;5040325;28;20106;-75
2022/09/12 13:47:53;;;;;;;0.30;0.30;;;;;;;;;;5015980;28;20211;-75
2022/09/12 13:50:23;;;;;;;0.30;0.30;;;;;;;;;;5052445;28;20430;-76
2022/09/12 13:52:52;;;;;;;0.40;0.40;;;;;;;;;;5018134;28;20037;-76
2022/09/12 13:55:24;;;;;;;0.30;0.30;;;;;;;;;;5036296;28;20037;-76
2022/09/12 13:57:58;;;;;;;0.43;0.43;;;;;;;;;;5019116;28;20033;-75
2022/09/12 14:00:27;;;;;;;0.40;0.40;;;;;;;;;;5036332;28;20583;-77
2022/09/12 14:05:43;;;;;;;1.00;0.68;;;;;;;;;;5025386;28;20536;-78
2022/09/12 14:08:10;;;;;;;0.40;0.40;;;;;;;;;;5031298;28;20541;-76
2022/09/12 14:10:40;;;;;;;0.40;0.40;;;;;;;;;;5032630;28;20179;-76
2022/09/12 14:13:14;;;;;;;0.40;0.40;;;;;;;;;;5035519;28;20172;-76
2022/09/12 14:15:43;;;;;;;3.88;0.50;;;;;;;;;;5031525;28;20040;-76
2022/09/12 14:18:19;;;;;;;0.40;0.40;;;;;;;;;;5014068;28;20036;-76
2022/09/12 14:20:44;;;;;;;0.20;0.20;;;;;;;;;;5020811;28;20200;-75
2022/09/12 14:23:16;;;;;;;0.22;0.22;;;;;;;;;;5032212;28;20116;-76
2022/09/12 14:25:46;;;;;;;0.60;0.60;;;;;;;;;;5031724;28;20025;-75
2022/09/12 14:28:13;;;;;;;0.60;0.50;;;;;;;;;;5032630;28;20041;-76
2022/09/12 14:30:38;;;;;;;0.60;0.60;;;;;;;;;;5013674;28;20026;-76
2022/09/12 14:33:10;;;;;;;0.30;0.30;;;;;;;;;;5031980;28;20032;-75
2022/09/12 14:35:41;;;;;;;0.30;0.30;;;;;;;;;;5031867;28;20122;-77
2022/09/12 14:38:17;;;;;;;3.70;0.63;;;;;;;;;;5031805;28;20172;-77
2022/09/12 14:40:49;;;;;;;0.63;0.63;;;;;;;;;;5041726;28;20025;-78
2022/09/12 14:43:17;;;;;;;0.40;0.40;;;;;;;;;;5055467;28;20033;-76
2022/09/12 14:45:43;;;;;;;;;;;;;;;;;;5038147;28;20029;-76
2022/09/12 14:48:16;;;;;;;0.87;0.70;;;;;;;;;;5043943;28;20425;-76
2022/09/12 14:50:42;;;;;;;0.45;0.45;;;;;;;;;;5020746;28;20329;-76
2022/09/12 14:53:34;;;;;;;1.98;0.70;;;;;;;;;;5032238;28;20052;-75
2022/09/12 14:56:08;;;;;;;1.00;0.75;;;;;;;;;;5031003;28;20049;-76
2022/09/12 14:58:36;;;;;;;0.65;0.55;;;;;;;;;;5014895;28;20044;-76
2022/09/12 15:01:01;;;;;;;0.30;0.30;;;;;;;;;;5031419;28;20547;-76